sensor_id;sensor_type;location;lat;lon;timestamp;pressure;altitude;pressure_sealevel;temperature;humidity
78839;BME280;68405;47.190;27.558;2024-02-26T00:00:09;99675.59;;;8.57;80.59
78839;BME280;68405;47.190;27.558;2024-02-26T00:02:38;99672.39;;;8.54;80.45
78839;BME280;68405;47.190;27.558;2024-02-26T00:05:08;99677.40;;;8.55;79.93
78839;BME280;68405;47.190;27.558;2024-02-26T00:07:38;99675.08;;;8.51;79.74
78839;BME280;68405;47.190;27.558;2024-02-26T00:10:09;99674.58;;;8.50;80.07
78839;BME280;68405;47.190;27.558;2024-02-26T00:12:38;99680.66;;;8.50;80.03
78839;BME280;68405;47.190;27.558;2024-02-26T00:15:09;99677.54;;;8.50;80.34
78839;BME280;68405;47.190;27.558;2024-02-26T00:17:38;99682.89;;;8.51;79.94
78839;BME280;68405;47.190;27.558;2024-02-26T00:20:09;99680.10;;;8.51;80.21
78839;BME280;68405;47.190;27.558;2024-02-26T00:22:38;99680.23;;;8.52;79.73
78839;BME280;68405;47.190;27.558;2024-02-26T00:25:08;99677.37;;;8.55;79.55
78839;BME280;68405;47.190;27.558;2024-02-26T00:27:37;99676.73;;;8.59;79.42
78839;BME280;68405;47.190;27.558;2024-02-26T00:30:09;99677.95;;;8.59;79.67
78839;BME280;68405;47.190;27.558;2024-02-26T00:32:38;99674.67;;;8.59;79.82
78839;BME280;68405;47.190;27.558;2024-02-26T00:35:08;99667.13;;;8.57;79.72
78839;BME280;68405;47.190;27.558;2024-02-26T00:37:38;99666.27;;;8.56;79.93
78839;BME280;68405;47.190;27.558;2024-02-26T00:40:08;99662.82;;;8.56;79.68
78839;BME280;68405;47.190;27.558;2024-02-26T00:42:38;99660.04;;;8.57;79.75
78839;BME280;68405;47.190;27.558;2024-02-26T00:45:08;99658.28;;;8.57;79.79
78839;BME280;68405;47.190;27.558;2024-02-26T00:47:37;99660.00;;;8.58;79.87
78839;BME280;68405;47.190;27.558;2024-02-26T00:50:07;99660.71;;;8.57;79.94
78839;BME280;68405;47.190;27.558;2024-02-26T00:52:37;99656.91;;;8.57;80.08
78839;BME280;68405;47.190;27.558;2024-02-26T00:55:07;99658.59;;;8.59;79.97
78839;BME280;68405;47.190;27.558;2024-02-26T00:57:36;99656.12;;;8.60;79.84
78839;BME280;68405;47.190;27.558;2024-02-26T01:00:07;99655.80;;;8.59;79.88
78839;BME280;68405;47.190;27.558;2024-02-26T01:02:37;99655.31;;;8.58;80.20
78839;BME280;68405;47.190;27.558;2024-02-26T01:05:08;99655.56;;;8.55;80.16
78839;BME280;68405;47.190;27.558;2024-02-26T01:07:37;99658.21;;;8.53;80.11
78839;BME280;68405;47.190;27.558;2024-02-26T01:10:09;99658.05;;;8.53;79.87
78839;BME280;68405;47.190;27.558;2024-02-26T01:12:38;99663.19;;;8.55;79.88
78839;BME280;68405;47.190;27.558;2024-02-26T01:15:08;99654.91;;;8.54;79.87
78839;BME280;68405;47.190;27.558;2024-02-26T01:17:37;99654.55;;;8.54;80.14
78839;BME280;68405;47.190;27.558;2024-02-26T01:20:08;99654.42;;;8.53;80.18
78839;BME280;68405;47.190;27.558;2024-02-26T01:22:37;99652.09;;;8.50;80.39
78839;BME280;68405;47.190;27.558;2024-02-26T01:25:09;99652.47;;;8.49;80.29
78839;BME280;68405;47.190;27.558;2024-02-26T01:27:38;99648.56;;;8.46;80.39
78839;BME280;68405;47.190;27.558;2024-02-26T01:30:10;99644.91;;;8.46;80.52
78839;BME280;68405;47.190;27.558;2024-02-26T01:32:39;99639.92;;;8.45;80.39
78839;BME280;68405;47.190;27.558;2024-02-26T01:35:09;99642.80;;;8.48;80.23
78839;BME280;68405;47.190;27.558;2024-02-26T01:37:39;99641.52;;;8.43;82.01
78839;BME280;68405;47.190;27.558;2024-02-26T01:40:11;99634.72;;;8.45;80.92
78839;BME280;68405;47.190;27.558;2024-02-26T01:42:40;99637.61;;;8.48;81.01
78839;BME280;68405;47.190;27.558;2024-02-26T01:45:14;99639.56;;;8.46;81.35
78839;BME280;68405;47.190;27.558;2024-02-26T01:47:50;99635.25;;;8.46;81.12
78839;BME280;68405;47.190;27.558;2024-02-26T01:50:20;99633.16;;;8.46;80.83
78839;BME280;68405;47.190;27.558;2024-02-26T01:52:50;99639.03;;;8.46;80.87
78839;BME280;68405;47.190;27.558;2024-02-26T01:55:20;99638.16;;;8.47;80.48
78839;BME280;68405;47.190;27.558;2024-02-26T01:57:52;99640.29;;;8.51;80.34
78839;BME280;68405;47.190;27.558;2024-02-26T02:00:23;99638.66;;;8.53;80.24
78839;BME280;68405;47.190;27.558;2024-02-26T02:02:52;99631.73;;;8.53;80.48
78839;BME280;68405;47.190;27.558;2024-02-26T02:05:23;99635.43;;;8.51;80.85
78839;BME280;68405;47.190;27.558;2024-02-26T02:07:54;99636.66;;;8.50;80.65
78839;BME280;68405;47.190;27.558;2024-02-26T02:10:23;99631.29;;;8.51;80.91
78839;BME280;68405;47.190;27.558;2024-02-26T02:12:53;99635.76;;;8.52;80.26
78839;BME280;68405;47.190;27.558;2024-02-26T02:15:22;99633.09;;;8.54;80.15
78839;BME280;68405;47.190;27.558;2024-02-26T02:17:51;99639.43;;;8.51;80.37
78839;BME280;68405;47.190;27.558;2024-02-26T02:20:26;99641.75;;;8.48;80.38
78839;BME280;68405;47.190;27.558;2024-02-26T02:22:55;99643.18;;;8.47;80.22
78839;BME280;68405;47.190;27.558;2024-02-26T02:25:24;99650.13;;;8.46;80.54
78839;BME280;68405;47.190;27.558;2024-02-26T02:27:54;99648.97;;;8.44;80.59
78839;BME280;68405;47.190;27.558;2024-02-26T02:30:25;99644.45;;;8.44;80.27
78839;BME280;68405;47.190;27.558;2024-02-26T02:32:56;99646.20;;;8.43;80.14
78839;BME280;68405;47.190;27.558;2024-02-26T02:35:26;99649.59;;;8.40;80.41
78839;BME280;68405;47.190;27.558;2024-02-26T02:37:57;99653.45;;;8.38;80.25
78839;BME280;68405;47.190;27.558;2024-02-26T02:40:26;99656.60;;;8.36;80.34
78839;BME280;68405;47.190;27.558;2024-02-26T02:42:55;99655.68;;;8.33;80.50
78839;BME280;68405;47.190;27.558;2024-02-26T02:45:24;99656.08;;;8.31;80.13
78839;BME280;68405;47.190;27.558;2024-02-26T02:47:53;99652.30;;;8.29;80.49
78839;BME280;68405;47.190;27.558;2024-02-26T02:50:21;99656.95;;;8.30;80.15
78839;BME280;68405;47.190;27.558;2024-02-26T02:52:50;99654.67;;;8.32;80.25
78839;BME280;68405;47.190;27.558;2024-02-26T02:55:19;99658.58;;;8.28;80.31
78839;BME280;68405;47.190;27.558;2024-02-26T02:57:48;99656.81;;;8.23;80.68
78839;BME280;68405;47.190;27.558;2024-02-26T03:00:18;99657.83;;;8.23;80.16
78839;BME280;68405;47.190;27.558;2024-02-26T03:02:47;99655.42;;;8.23;80.23
78839;BME280;68405;47.190;27.558;2024-02-26T03:05:16;99658.02;;;8.23;80.28
78839;BME280;68405;47.190;27.558;2024-02-26T03:07:45;99654.48;;;8.19;80.49
78839;BME280;68405;47.190;27.558;2024-02-26T03:10:15;99649.27;;;8.20;80.51
78839;BME280;68405;47.190;27.558;2024-02-26T03:12:44;99647.55;;;8.20;80.43
78839;BME280;68405;47.190;27.558;2024-02-26T03:15:13;99649.21;;;8.17;80.33
78839;BME280;68405;47.190;27.558;2024-02-26T03:17:42;99647.14;;;8.17;80.15
78839;BME280;68405;47.190;27.558;2024-02-26T03:20:12;99647.03;;;8.14;80.26
78839;BME280;68405;47.190;27.558;2024-02-26T03:22:41;99645.91;;;8.17;79.82
78839;BME280;68405;47.190;27.558;2024-02-26T03:25:10;99644.20;;;8.16;79.96
78839;BME280;68405;47.190;27.558;2024-02-26T03:27:39;99643.14;;;8.11;79.95
78839;BME280;68405;47.190;27.558;2024-02-26T03:30:09;99641.81;;;8.09;79.71
78839;BME280;68405;47.190;27.558;2024-02-26T03:32:38;99647.30;;;8.11;79.79
78839;BME280;68405;47.190;27.558;2024-02-26T03:35:08;99643.59;;;8.07;79.70
78839;BME280;68405;47.190;27.558;2024-02-26T03:37:37;99647.91;;;8.07;79.43
78839;BME280;68405;47.190;27.558;2024-02-26T03:40:08;99644.30;;;8.06;79.41
78839;BME280;68405;47.190;27.558;2024-02-26T03:42:37;99646.20;;;8.07;79.51
78839;BME280;68405;47.190;27.558;2024-02-26T03:45:08;99641.77;;;8.04;79.33
78839;BME280;68405;47.190;27.558;2024-02-26T03:47:38;99642.21;;;8.00;79.29
78839;BME280;68405;47.190;27.558;2024-02-26T03:50:09;99639.39;;;7.97;79.20
78839;BME280;68405;47.190;27.558;2024-02-26T03:52:38;99637.19;;;7.95;79.34
78839;BME280;68405;47.190;27.558;2024-02-26T03:55:08;99644.37;;;7.91;79.22
78839;BME280;68405;47.190;27.558;2024-02-26T03:57:37;99647.19;;;7.89;79.10
78839;BME280;68405;47.190;27.558;2024-02-26T04:00:08;99647.33;;;7.84;79.12
78839;BME280;68405;47.190;27.558;2024-02-26T04:02:37;99649.98;;;7.82;79.03
78839;BME280;68405;47.190;27.558;2024-02-26T04:05:10;99652.77;;;7.81;79.11
78839;BME280;68405;47.190;27.558;2024-02-26T04:07:39;99656.38;;;7.82;79.02
78839;BME280;68405;47.190;27.558;2024-02-26T04:10:10;99656.40;;;7.81;79.02
78839;BME280;68405;47.190;27.558;2024-02-26T04:12:40;99656.23;;;7.82;78.90
78839;BME280;68405;47.190;27.558;2024-02-26T04:15:10;99656.05;;;7.81;78.99
78839;BME280;68405;47.190;27.558;2024-02-26T04:17:39;99662.83;;;7.81;78.83
78839;BME280;68405;47.190;27.558;2024-02-26T04:20:14;99671.52;;;7.79;78.94
78839;BME280;68405;47.190;27.558;2024-02-26T04:22:45;99673.68;;;7.75;78.87
78839;BME280;68405;47.190;27.558;2024-02-26T04:25:14;99675.55;;;7.76;78.89
78839;BME280;68405;47.190;27.558;2024-02-26T04:27:43;99674.06;;;7.74;78.87
78839;BME280;68405;47.190;27.558;2024-02-26T04:30:13;99674.73;;;7.68;78.87
78839;BME280;68405;47.190;27.558;2024-02-26T04:32:42;99671.52;;;7.65;78.65
78839;BME280;68405;47.190;27.558;2024-02-26T04:35:11;99668.05;;;7.59;79.05
78839;BME280;68405;47.190;27.558;2024-02-26T04:37:40;99670.75;;;7.54;78.97
78839;BME280;68405;47.190;27.558;2024-02-26T04:40:10;99667.38;;;7.51;79.37
78839;BME280;68405;47.190;27.558;2024-02-26T04:42:39;99668.41;;;7.52;79.01
78839;BME280;68405;47.190;27.558;2024-02-26T04:45:09;99665.64;;;7.52;78.78
78839;BME280;68405;47.190;27.558;2024-02-26T04:47:38;99663.59;;;7.51;78.95
78839;BME280;68405;47.190;27.558;2024-02-26T04:50:08;99663.63;;;7.49;79.04
78839;BME280;68405;47.190;27.558;2024-02-26T04:52:37;99663.52;;;7.46;79.16
78839;BME280;68405;47.190;27.558;2024-02-26T04:55:07;99663.76;;;7.44;79.02
78839;BME280;68405;47.190;27.558;2024-02-26T04:57:36;99668.59;;;7.44;78.79
78839;BME280;68405;47.190;27.558;2024-02-26T05:00:06;99670.39;;;7.42;79.10
78839;BME280;68405;47.190;27.558;2024-02-26T05:02:36;99667.70;;;7.38;79.02
78839;BME280;68405;47.190;27.558;2024-02-26T05:05:07;99670.54;;;7.36;79.00
78839;BME280;68405;47.190;27.558;2024-02-26T05:07:41;99672.02;;;7.31;79.39
78839;BME280;68405;47.190;27.558;2024-02-26T05:10:10;99671.45;;;7.33;79.18
78839;BME280;68405;47.190;27.558;2024-02-26T05:12:39;99677.54;;;7.39;79.09
78839;BME280;68405;47.190;27.558;2024-02-26T05:15:11;99676.95;;;7.41;78.81
78839;BME280;68405;47.190;27.558;2024-02-26T05:17:46;99678.98;;;7.43;78.82
78839;BME280;68405;47.190;27.558;2024-02-26T05:20:15;99676.64;;;7.47;78.85
78839;BME280;68405;47.190;27.558;2024-02-26T05:22:44;99675.42;;;7.61;78.74
78839;BME280;68405;47.190;27.558;2024-02-26T05:25:15;99678.87;;;7.82;78.38
78839;BME280;68405;47.190;27.558;2024-02-26T05:27:45;99680.86;;;7.92;77.73
78839;BME280;68405;47.190;27.558;2024-02-26T05:30:15;99684.89;;;8.08;77.83
78839;BME280;68405;47.190;27.558;2024-02-26T05:32:44;99689.92;;;8.27;77.45
78839;BME280;68405;47.190;27.558;2024-02-26T05:35:13;99690.75;;;8.48;77.43
78839;BME280;68405;47.190;27.558;2024-02-26T05:37:43;99690.63;;;8.64;77.41
78839;BME280;68405;47.190;27.558;2024-02-26T05:40:13;99686.16;;;8.98;77.22
78839;BME280;68405;47.190;27.558;2024-02-26T05:42:41;99688.17;;;9.43;75.90
78839;BME280;68405;47.190;27.558;2024-02-26T05:45:13;99691.27;;;10.10;76.28
78839;BME280;68405;47.190;27.558;2024-02-26T05:47:41;99694.02;;;10.55;75.66
78839;BME280;68405;47.190;27.558;2024-02-26T05:50:11;99694.86;;;10.60;75.05
78839;BME280;68405;47.190;27.558;2024-02-26T05:52:41;99704.41;;;10.51;75.69
78839;BME280;68405;47.190;27.558;2024-02-26T05:55:11;99706.64;;;10.42;76.07
78839;BME280;68405;47.190;27.558;2024-02-26T05:57:49;99702.05;;;10.34;74.45
78839;BME280;68405;47.190;27.558;2024-02-26T06:00:19;99695.73;;;10.26;74.04
78839;BME280;68405;47.190;27.558;2024-02-26T06:02:48;99697.64;;;10.21;73.95
78839;BME280;68405;47.190;27.558;2024-02-26T06:05:17;99695.03;;;10.21;74.74
78839;BME280;68405;47.190;27.558;2024-02-26T06:07:46;99693.61;;;10.13;73.85
78839;BME280;68405;47.190;27.558;2024-02-26T06:10:16;99697.31;;;10.16;74.78
78839;BME280;68405;47.190;27.558;2024-02-26T06:12:45;99697.48;;;10.21;73.49
78839;BME280;68405;47.190;27.558;2024-02-26T06:15:14;99701.84;;;10.25;74.12
78839;BME280;68405;47.190;27.558;2024-02-26T06:17:43;99699.30;;;10.28;73.13
78839;BME280;68405;47.190;27.558;2024-02-26T06:20:12;99697.69;;;10.25;72.19
78839;BME280;68405;47.190;27.558;2024-02-26T06:22:42;99698.48;;;10.31;70.75
78839;BME280;68405;47.190;27.558;2024-02-26T06:25:11;99699.66;;;10.44;71.01
78839;BME280;68405;47.190;27.558;2024-02-26T06:27:40;99706.27;;;10.52;70.13
78839;BME280;68405;47.190;27.558;2024-02-26T06:30:10;99710.44;;;10.71;72.53
78839;BME280;68405;47.190;27.558;2024-02-26T06:32:39;99705.91;;;10.90;72.64
78839;BME280;68405;47.190;27.558;2024-02-26T06:35:09;99714.08;;;11.08;70.93
78839;BME280;68405;47.190;27.558;2024-02-26T06:37:39;99707.67;;;11.59;71.84
78839;BME280;68405;47.190;27.558;2024-02-26T06:40:09;99707.88;;;12.52;70.37
78839;BME280;68405;47.190;27.558;2024-02-26T06:42:38;99707.63;;;14.25;70.11
78839;BME280;68405;47.190;27.558;2024-02-26T06:45:08;99709.90;;;16.43;67.53
78839;BME280;68405;47.190;27.558;2024-02-26T06:47:37;99702.25;;;18.81;66.15
78839;BME280;68405;47.190;27.558;2024-02-26T06:50:07;99696.96;;;21.09;62.18
78839;BME280;68405;47.190;27.558;2024-02-26T06:52:36;99700.94;;;22.91;58.88
78839;BME280;68405;47.190;27.558;2024-02-26T06:55:06;99699.99;;;23.39;56.37
78839;BME280;68405;47.190;27.558;2024-02-26T06:57:36;99705.08;;;21.98;49.31
78839;BME280;68405;47.190;27.558;2024-02-26T07:00:10;99708.30;;;21.23;55.57
78839;BME280;68405;47.190;27.558;2024-02-26T07:02:42;99716.12;;;20.89;58.34
78839;BME280;68405;47.190;27.558;2024-02-26T07:05:11;99718.36;;;20.40;57.84
78839;BME280;68405;47.190;27.558;2024-02-26T07:07:41;99719.38;;;19.99;56.35
78839;BME280;68405;47.190;27.558;2024-02-26T07:10:11;99721.35;;;19.51;57.24
78839;BME280;68405;47.190;27.558;2024-02-26T07:12:40;99723.03;;;19.24;56.90
78839;BME280;68405;47.190;27.558;2024-02-26T07:15:10;99718.11;;;19.21;55.97
78839;BME280;68405;47.190;27.558;2024-02-26T07:17:39;99720.94;;;19.31;55.10
78839;BME280;68405;47.190;27.558;2024-02-26T07:20:11;99718.63;;;19.45;53.69
78839;BME280;68405;47.190;27.558;2024-02-26T07:22:40;99721.42;;;19.26;54.22
78839;BME280;68405;47.190;27.558;2024-02-26T07:25:11;99728.92;;;18.75;53.98
78839;BME280;68405;47.190;27.558;2024-02-26T07:27:41;99729.40;;;18.38;54.57
78839;BME280;68405;47.190;27.558;2024-02-26T07:30:12;99734.00;;;18.12;53.41
78839;BME280;68405;47.190;27.558;2024-02-26T07:32:42;99728.66;;;17.68;52.18
78839;BME280;68405;47.190;27.558;2024-02-26T07:35:11;99729.02;;;17.28;51.31
78839;BME280;68405;47.190;27.558;2024-02-26T07:37:40;99728.77;;;17.32;49.65
78839;BME280;68405;47.190;27.558;2024-02-26T07:40:10;99730.66;;;17.43;51.12
78839;BME280;68405;47.190;27.558;2024-02-26T07:42:39;99726.85;;;17.48;48.87
78839;BME280;68405;47.190;27.558;2024-02-26T07:45:09;99728.41;;;18.42;48.32
78839;BME280;68405;47.190;27.558;2024-02-26T07:47:39;99726.96;;;20.36;46.91
78839;BME280;68405;47.190;27.558;2024-02-26T07:50:10;99720.73;;;22.26;45.01
78839;BME280;68405;47.190;27.558;2024-02-26T07:52:40;99718.80;;;22.30;44.16
78839;BME280;68405;47.190;27.558;2024-02-26T07:55:09;99722.96;;;21.46;43.45
78839;BME280;68405;47.190;27.558;2024-02-26T07:57:41;99720.61;;;20.82;43.06
78839;BME280;68405;47.190;27.558;2024-02-26T08:00:12;99726.10;;;20.42;43.77
78839;BME280;68405;47.190;27.558;2024-02-26T08:02:44;99729.59;;;20.07;44.24
78839;BME280;68405;47.190;27.558;2024-02-26T08:05:13;99730.52;;;19.58;44.15
78839;BME280;68405;47.190;27.558;2024-02-26T08:07:43;99728.33;;;19.48;44.42
78839;BME280;68405;47.190;27.558;2024-02-26T08:10:12;99730.50;;;19.66;42.02
78839;BME280;68405;47.190;27.558;2024-02-26T08:12:41;99730.12;;;19.28;42.17
78839;BME280;68405;47.190;27.558;2024-02-26T08:15:10;99723.20;;;19.52;42.51
78839;BME280;68405;47.190;27.558;2024-02-26T08:17:42;99724.98;;;20.41;42.22
78839;BME280;68405;47.190;27.558;2024-02-26T08:20:13;99731.77;;;22.14;39.70
78839;BME280;68405;47.190;27.558;2024-02-26T08:22:42;99729.50;;;24.08;38.85
78839;BME280;68405;47.190;27.558;2024-02-26T08:25:12;99731.71;;;25.93;35.85
78839;BME280;68405;47.190;27.558;2024-02-26T08:27:41;99731.13;;;26.53;36.46
78839;BME280;68405;47.190;27.558;2024-02-26T08:30:16;99725.13;;;27.66;34.23
78839;BME280;68405;47.190;27.558;2024-02-26T08:32:47;99721.52;;;29.47;33.50
78839;BME280;68405;47.190;27.558;2024-02-26T08:35:16;99727.84;;;31.43;31.31
78839;BME280;68405;47.190;27.558;2024-02-26T08:37:46;99722.87;;;32.46;30.33
78839;BME280;68405;47.190;27.558;2024-02-26T08:40:16;99725.16;;;33.82;28.67
78839;BME280;68405;47.190;27.558;2024-02-26T08:42:45;99727.76;;;34.35;27.26
78839;BME280;68405;47.190;27.558;2024-02-26T08:45:14;99725.30;;;32.73;26.87
78839;BME280;68405;47.190;27.558;2024-02-26T08:47:43;99726.86;;;31.76;27.80
78839;BME280;68405;47.190;27.558;2024-02-26T08:50:13;99724.36;;;31.27;26.81
78839;BME280;68405;47.190;27.558;2024-02-26T08:52:45;99723.92;;;30.41;26.70
78839;BME280;68405;47.190;27.558;2024-02-26T08:55:16;99724.25;;;29.33;25.90
78839;BME280;68405;47.190;27.558;2024-02-26T08:57:46;99725.13;;;30.07;26.58
78839;BME280;68405;47.190;27.558;2024-02-26T09:00:17;99729.09;;;30.59;25.59
78839;BME280;68405;47.190;27.558;2024-02-26T09:02:48;99733.86;;;30.75;24.80
78839;BME280;68405;47.190;27.558;2024-02-26T09:05:17;99738.03;;;29.20;25.59
78839;BME280;68405;47.190;27.558;2024-02-26T09:07:46;99735.38;;;27.48;25.80
78839;BME280;68405;47.190;27.558;2024-02-26T09:10:15;99735.34;;;25.90;27.01
78839;BME280;68405;47.190;27.558;2024-02-26T09:12:44;99735.23;;;24.64;28.02
78839;BME280;68405;47.190;27.558;2024-02-26T09:15:16;99739.27;;;23.34;28.78
78839;BME280;68405;47.190;27.558;2024-02-26T09:17:45;99737.61;;;22.21;29.68
78839;BME280;68405;47.190;27.558;2024-02-26T09:20:16;99736.01;;;21.14;30.90
78839;BME280;68405;47.190;27.558;2024-02-26T09:22:46;99743.26;;;20.51;31.83
78839;BME280;68405;47.190;27.558;2024-02-26T09:25:16;99748.92;;;19.60;32.51
78839;BME280;68405;47.190;27.558;2024-02-26T09:27:46;99745.84;;;19.05;33.09
78839;BME280;68405;47.190;27.558;2024-02-26T09:30:15;99745.84;;;18.78;33.79
78839;BME280;68405;47.190;27.558;2024-02-26T09:32:47;99743.81;;;18.49;35.13
78839;BME280;68405;47.190;27.558;2024-02-26T09:35:16;99741.33;;;18.36;34.39
78839;BME280;68405;47.190;27.558;2024-02-26T09:37:45;99741.63;;;18.08;35.19
78839;BME280;68405;47.190;27.558;2024-02-26T09:40:14;99738.09;;;17.69;35.67
78839;BME280;68405;47.190;27.558;2024-02-26T09:42:44;99736.23;;;17.19;36.69
78839;BME280;68405;47.190;27.558;2024-02-26T09:45:18;99734.08;;;16.81;36.62
78839;BME280;68405;47.190;27.558;2024-02-26T09:47:52;99738.38;;;16.56;37.79
78839;BME280;68405;47.190;27.558;2024-02-26T09:50:23;99734.23;;;16.44;38.43
78839;BME280;68405;47.190;27.558;2024-02-26T09:52:52;99725.23;;;16.36;39.98
78839;BME280;68405;47.190;27.558;2024-02-26T09:55:22;99728.30;;;16.55;38.64
78839;BME280;68405;47.190;27.558;2024-02-26T09:57:52;99727.21;;;16.50;39.10
78839;BME280;68405;47.190;27.558;2024-02-26T10:00:22;99723.97;;;16.68;39.29
78839;BME280;68405;47.190;27.558;2024-02-26T10:02:55;99725.79;;;16.78;39.34
78839;BME280;68405;47.190;27.558;2024-02-26T10:05:25;99718.30;;;16.89;39.05
78839;BME280;68405;47.190;27.558;2024-02-26T10:07:55;99714.14;;;16.83;39.74
78839;BME280;68405;47.190;27.558;2024-02-26T10:10:26;99709.60;;;16.85;39.17
78839;BME280;68405;47.190;27.558;2024-02-26T10:12:56;99709.61;;;16.91;40.02
78839;BME280;68405;47.190;27.558;2024-02-26T10:15:26;99711.48;;;16.97;39.56
78839;BME280;68405;47.190;27.558;2024-02-26T10:17:55;99706.20;;;16.98;39.97
78839;BME280;68405;47.190;27.558;2024-02-26T10:20:25;99706.02;;;17.12;39.43
78839;BME280;68405;47.190;27.558;2024-02-26T10:22:56;99708.13;;;17.41;39.37
78839;BME280;68405;47.190;27.558;2024-02-26T10:25:25;99701.28;;;17.52;39.39
78839;BME280;68405;47.190;27.558;2024-02-26T10:27:54;99703.20;;;17.42;39.61
78839;BME280;68405;47.190;27.558;2024-02-26T10:30:24;99699.73;;;17.30;39.37
78839;BME280;68405;47.190;27.558;2024-02-26T10:32:55;99701.80;;;17.25;39.48
78839;BME280;68405;47.190;27.558;2024-02-26T10:35:24;99693.52;;;17.09;39.63
78839;BME280;68405;47.190;27.558;2024-02-26T10:37:54;99691.46;;;17.01;39.69
78839;BME280;68405;47.190;27.558;2024-02-26T10:40:23;99687.95;;;16.95;39.63
78839;BME280;68405;47.190;27.558;2024-02-26T10:42:51;99683.42;;;17.00;39.81
78839;BME280;68405;47.190;27.558;2024-02-26T10:45:20;99683.70;;;16.99;39.69
78839;BME280;68405;47.190;27.558;2024-02-26T10:47:49;99677.17;;;16.99;39.15
78839;BME280;68405;47.190;27.558;2024-02-26T10:50:19;99679.63;;;17.10;38.91
78839;BME280;68405;47.190;27.558;2024-02-26T10:52:51;99681.69;;;17.35;38.77
78839;BME280;68405;47.190;27.558;2024-02-26T10:55:23;99684.66;;;17.67;38.69
78839;BME280;68405;47.190;27.558;2024-02-26T10:57:53;99684.13;;;17.83;38.53
78839;BME280;68405;47.190;27.558;2024-02-26T11:00:23;99680.31;;;17.95;38.43
78839;BME280;68405;47.190;27.558;2024-02-26T11:02:53;99685.02;;;17.90;38.44
78839;BME280;68405;47.190;27.558;2024-02-26T11:05:23;99683.23;;;17.88;38.41
78839;BME280;68405;47.190;27.558;2024-02-26T11:07:54;99684.81;;;17.91;38.43
78839;BME280;68405;47.190;27.558;2024-02-26T11:10:24;99679.10;;;17.98;38.41
78839;BME280;68405;47.190;27.558;2024-02-26T11:12:55;99675.46;;;18.15;38.04
78839;BME280;68405;47.190;27.558;2024-02-26T11:15:24;99679.39;;;18.27;37.93
78839;BME280;68405;47.190;27.558;2024-02-26T11:17:54;99679.79;;;18.46;37.87
78839;BME280;68405;47.190;27.558;2024-02-26T11:20:25;99675.61;;;18.80;37.73
78839;BME280;68405;47.190;27.558;2024-02-26T11:22:56;99679.45;;;19.18;37.15
78839;BME280;68405;47.190;27.558;2024-02-26T11:25:28;99674.61;;;19.78;36.04
78839;BME280;68405;47.190;27.558;2024-02-26T11:28:00;99671.23;;;19.88;34.97
78839;BME280;68405;47.190;27.558;2024-02-26T11:30:33;99669.35;;;19.75;33.94
78839;BME280;68405;47.190;27.558;2024-02-26T11:33:07;99665.52;;;19.53;33.57
78839;BME280;68405;47.190;27.558;2024-02-26T11:35:37;99665.67;;;19.26;33.19
78839;BME280;68405;47.190;27.558;2024-02-26T11:38:09;99662.98;;;18.94;33.21
78839;BME280;68405;47.190;27.558;2024-02-26T11:40:46;99658.09;;;18.77;33.51
78839;BME280;68405;47.190;27.558;2024-02-26T11:43:16;99658.68;;;18.64;32.94
78839;BME280;68405;47.190;27.558;2024-02-26T11:45:54;99655.48;;;18.32;32.91
78839;BME280;68405;47.190;27.558;2024-02-26T11:48:29;99664.71;;;18.18;33.19
78839;BME280;68405;47.190;27.558;2024-02-26T11:51:00;99658.89;;;18.10;33.00
78839;BME280;68405;47.190;27.558;2024-02-26T11:53:32;99663.23;;;17.96;33.07
78839;BME280;68405;47.190;27.558;2024-02-26T11:56:29;99655.43;;;17.84;33.30
78839;BME280;68405;47.190;27.558;2024-02-26T11:59:10;99648.44;;;17.78;33.67
78839;BME280;68405;47.190;27.558;2024-02-26T12:01:47;99644.69;;;17.76;33.60
78839;BME280;68405;47.190;27.558;2024-02-26T12:04:19;99647.16;;;17.66;33.71
78839;BME280;68405;47.190;27.558;2024-02-26T12:06:51;99646.05;;;17.56;33.85
78839;BME280;68405;47.190;27.558;2024-02-26T12:09:34;99644.28;;;17.53;34.08
78839;BME280;68405;47.190;27.558;2024-02-26T12:12:05;99647.16;;;17.55;34.21
78839;BME280;68405;47.190;27.558;2024-02-26T12:14:36;99646.92;;;17.51;34.26
78839;BME280;68405;47.190;27.558;2024-02-26T12:17:05;99647.87;;;17.50;34.18
78839;BME280;68405;47.190;27.558;2024-02-26T12:19:36;99643.67;;;17.52;34.34
78839;BME280;68405;47.190;27.558;2024-02-26T12:22:08;99643.12;;;17.74;34.27
78839;BME280;68405;47.190;27.558;2024-02-26T12:24:37;99649.21;;;17.84;33.82
78839;BME280;68405;47.190;27.558;2024-02-26T12:27:06;99640.09;;;17.95;33.69
78839;BME280;68405;47.190;27.558;2024-02-26T12:29:35;99642.13;;;18.09;33.36
78839;BME280;68405;47.190;27.558;2024-02-26T12:32:05;99640.60;;;18.16;33.01
78839;BME280;68405;47.190;27.558;2024-02-26T12:34:35;99638.94;;;18.17;33.00
78839;BME280;68405;47.190;27.558;2024-02-26T12:37:04;99637.02;;;18.27;32.69
78839;BME280;68405;47.190;27.558;2024-02-26T12:39:35;99634.51;;;18.35;32.75
78839;BME280;68405;47.190;27.558;2024-02-26T12:42:06;99634.80;;;18.46;32.58
78839;BME280;68405;47.190;27.558;2024-02-26T12:44:35;99636.23;;;18.41;32.29
78839;BME280;68405;47.190;27.558;2024-02-26T12:47:05;99626.74;;;18.28;32.27
78839;BME280;68405;47.190;27.558;2024-02-26T12:49:33;99627.30;;;18.25;32.20
78839;BME280;68405;47.190;27.558;2024-02-26T12:52:03;99627.52;;;18.19;32.41
78839;BME280;68405;47.190;27.558;2024-02-26T12:54:32;99624.83;;;18.22;32.25
78839;BME280;68405;47.190;27.558;2024-02-26T12:57:02;99623.33;;;18.24;32.36
78839;BME280;68405;47.190;27.558;2024-02-26T12:59:33;99626.40;;;18.20;32.30
78839;BME280;68405;47.190;27.558;2024-02-26T13:02:03;99629.52;;;18.21;32.47
78839;BME280;68405;47.190;27.558;2024-02-26T13:04:33;99625.16;;;18.20;32.46
78839;BME280;68405;47.190;27.558;2024-02-26T13:07:05;99627.30;;;18.20;32.72
78839;BME280;68405;47.190;27.558;2024-02-26T13:09:34;99629.28;;;18.17;32.73